Time;durP1;ratioP1;P1;durP2;ratioP2;P2;SDS_P1;SDS_P2;PMS_P1;PMS_P2;Temp;Humidity;BMP_temperature;BMP_pressure;BME280_temperature;BME280_humidity;BME280_pressure;Samples;Min_cycle;Max_cycle;Signal;HPM_P1;HPM_P2
2022/06/03 00:01:05;;;;;;;15.32;8.85;;;7.60;99.90;;;;;;5095096;28;20036;-75
2022/06/03 00:03:41;;;;;;;20.23;9.98;;;7.60;99.90;;;;;;5095273;28;20055;-75
2022/06/03 00:06:40;;;;;;;19.83;9.75;;;7.50;99.90;;;;;;5090977;28;20037;-75
2022/06/03 00:09:30;;;;;;;17.17;10.05;;;7.70;99.90;;;;;;5086740;28;20050;-75
2022/06/03 00:12:30;;;;;;;21.42;10.63;;;7.70;99.90;;;;;;5095181;28;20048;-75
2022/06/03 00:15:14;;;;;;;16.67;9.93;;;7.60;99.90;;;;;;5094980;28;20044;-75
2022/06/03 00:17:55;;;;;;;19.08;10.95;;;7.60;99.90;;;;;;5086610;28;20099;-75
2022/06/03 00:20:31;;;;;;;19.67;10.10;;;7.50;99.90;;;;;;5084130;28;20055;-75
2022/06/03 00:23:03;;;;;;;18.00;10.88;;;7.50;99.90;;;;;;5094319;28;20075;-75
2022/06/03 00:25:53;;;;;;;40.30;13.07;;;7.50;99.90;;;;;;5094643;28;20048;-74
2022/06/03 00:28:31;;;;;;;21.35;11.10;;;7.40;99.90;;;;;;5080340;28;20182;-74
2022/06/03 00:31:27;;;;;;;21.77;11.40;;;7.60;99.90;;;;;;5074127;28;20051;-74
2022/06/03 00:34:13;;;;;;;24.23;11.00;;;7.50;99.90;;;;;;5074861;28;20040;-74
2022/06/03 00:36:49;;;;;;;;;;;7.40;99.90;;;;;;5074472;28;20052;-74
2022/06/03 00:39:41;;;;;;;21.67;10.00;;;7.50;99.90;;;;;;5073735;28;19924;-75
2022/06/03 00:42:31;;;;;;;23.02;11.93;;;7.40;99.90;;;;;;5072267;28;20484;-74
2022/06/03 00:45:05;;;;;;;22.60;13.30;;;7.30;99.90;;;;;;5088638;28;20052;-74
2022/06/03 00:47:52;;;;;;;27.25;13.50;;;7.30;99.90;;;;;;5093931;28;20491;-74
2022/06/03 00:50:47;;;;;;;25.35;13.30;;;7.20;99.90;;;;;;5092034;28;20044;-74
2022/06/03 00:53:36;;;;;;;31.63;14.57;;;7.10;99.90;;;;;;5093235;28;20135;-76
2022/06/03 00:56:35;;;;;;;25.27;14.23;;;7.10;99.90;;;;;;5073594;28;20094;-74
2022/06/03 00:59:23;;;;;;;20.77;14.05;;;7.10;99.90;;;;;;5073390;28;20123;-75
2022/06/03 01:02:13;;;;;;;28.98;14.20;;;7.10;99.90;;;;;;5073599;28;20040;-75
2022/06/03 01:05:16;;;;;;;21.80;13.95;;;7.00;99.90;;;;;;5084968;28;20051;-75
2022/06/03 01:07:44;;;;;;;28.70;15.60;;;7.10;99.90;;;;;;5093461;28;20052;-74
2022/06/03 01:10:47;;;;;;;30.67;15.45;;;7.00;99.90;;;;;;5093553;28;20044;-74
2022/06/03 01:13:41;;;;;;;27.70;14.82;;;7.20;99.90;;;;;;5092934;28;20048;-75
2022/06/03 01:16:43;;;;;;;29.38;15.80;;;7.20;99.90;;;;;;5074198;28;20411;-74
2022/06/03 01:19:32;;;;;;;29.42;16.27;;;7.10;99.90;;;;;;5073420;28;20448;-74
2022/06/03 01:22:18;;;;;;;30.77;16.25;;;7.20;99.90;;;;;;5073022;28;20111;-74
2022/06/03 01:25:04;;;;;;;36.17;16.92;;;7.10;99.90;;;;;;5084562;28;20040;-74
2022/06/03 01:28:05;;;;;;;31.95;17.98;;;7.00;99.90;;;;;;5093352;28;20488;-74
2022/06/03 01:31:08;;;;;;;41.92;18.98;;;7.00;99.90;;;;;;5030925;28;20042;-74
2022/06/03 01:34:08;;;;;;;36.53;18.20;;;7.00;99.90;;;;;;5089176;28;20040;-74
2022/06/03 01:37:07;;;;;;;35.55;17.80;;;7.00;99.90;;;;;;5072971;28;20044;-74
2022/06/03 01:39:32;;;;;;;37.38;17.80;;;7.00;99.90;;;;;;5073201;28;20067;-74
2022/06/03 01:42:25;;;;;;;34.20;19.08;;;6.90;99.90;;;;;;5072782;28;20049;-74
2022/06/03 01:44:57;;;;;;;35.88;18.00;;;6.80;99.90;;;;;;5086893;28;20091;-75
2022/06/03 01:47:25;;;;;;;37.70;18.52;;;6.80;99.90;;;;;;5092923;28;20588;-75
2022/06/03 01:50:09;;;;;;;40.00;20.00;;;6.90;99.90;;;;;;5093273;28;20047;-75
2022/06/03 01:53:00;;;;;;;44.92;19.40;;;6.90;99.90;;;;;;5092767;28;20143;-75
2022/06/03 01:55:58;;;;;;;41.13;19.27;;;6.80;99.90;;;;;;5072684;28;20055;-75
2022/06/03 01:58:49;;;;;;;41.38;20.75;;;6.80;99.90;;;;;;5092947;28;20050;-74
2022/06/03 02:01:23;;;;;;;36.00;20.08;;;6.90;99.90;;;;;;5092733;28;20044;-74
2022/06/03 02:03:52;;;;;;;41.83;20.98;;;6.80;99.90;;;;;;5085353;28;20040;-75
2022/06/03 02:06:52;;;;;;;39.53;21.85;;;6.80;99.90;;;;;;5072744;28;20507;-75
2022/06/03 02:09:50;;;;;;;38.33;19.42;;;6.80;99.90;;;;;;5072546;28;20377;-74
2022/06/03 02:12:34;;;;;;;43.97;22.58;;;6.80;99.90;;;;;;5072455;28;20389;-75
2022/06/03 02:15:18;;;;;;;42.13;20.38;;;6.90;99.90;;;;;;5091565;28;20044;-74
2022/06/03 02:18:19;;;;;;;45.03;22.48;;;6.80;99.90;;;;;;5092770;28;20055;-74
2022/06/03 02:20:57;;;;;;;47.05;22.02;;;6.80;99.90;;;;;;5093072;28;20043;-75
2022/06/03 02:23:40;;;;;;;42.50;21.85;;;6.90;99.90;;;;;;5087871;28;20052;-74
2022/06/03 02:26:37;;;;;;;42.25;22.52;;;6.90;99.90;;;;;;5076242;28;20045;-74
2022/06/03 02:32:17;;;;;;;46.05;20.60;;;6.90;99.90;;;;;;5076335;28;19977;-74
2022/06/03 02:35:07;;;;;;;41.78;20.27;;;6.90;99.90;;;;;;5093836;28;20063;-74
2022/06/03 02:38:05;;;;;;;41.42;21.15;;;6.90;99.90;;;;;;5096551;28;20091;-74
2022/06/03 02:40:39;;;;;;;;;;;6.90;99.90;;;;;;5096847;28;20058;-74
2022/06/03 02:43:54;;;;;;;37.25;20.40;;;6.90;99.90;;;;;;5090456;28;20407;-74
2022/06/03 02:46:37;;;;;;;39.40;21.50;;;6.80;99.90;;;;;;5075820;28;20511;-73
2022/06/03 02:49:16;;;;;;;39.15;21.15;;;6.70;99.90;;;;;;5075853;28;20504;-75
2022/06/03 02:51:51;;;;;;;43.33;22.30;;;6.90;99.90;;;;;;5075864;28;20389;-75
2022/06/03 02:54:54;;;;;;;48.25;24.40;;;6.60;99.90;;;;;;5090880;28;20043;-76
2022/06/03 02:57:44;;;;;;;48.67;23.95;;;6.70;99.90;;;;;;5095282;28;20047;-75
2022/06/03 03:00:36;;;;;;;43.72;22.92;;;6.70;99.90;;;;;;5096003;28;20048;-76
2022/06/03 03:03:30;;;;;;;49.10;22.83;;;6.70;99.90;;;;;;5091054;28;20552;-75
2022/06/03 03:06:10;;;;;;;47.60;22.85;;;6.70;99.90;;;;;;5075789;28;20037;-75
2022/06/03 03:09:08;;;;;;;55.72;23.85;;;6.70;99.90;;;;;;5075648;28;20455;-75
2022/06/03 03:11:56;;;;;;;42.95;21.92;;;6.80;99.90;;;;;;5049299;28;20067;-74
2022/06/03 03:14:57;;;;;;;47.00;22.40;;;6.80;99.90;;;;;;5091282;28;20048;-75
2022/06/03 03:17:53;;;;;;;50.70;23.45;;;6.80;99.90;;;;;;5094801;28;20101;-75
2022/06/03 03:20:21;;;;;;;46.63;24.67;;;6.80;99.90;;;;;;5095761;28;20119;-75
2022/06/03 03:22:55;;;;;;;45.38;21.85;;;6.80;99.90;;;;;;5092570;28;20048;-75
2022/06/03 03:25:44;;;;;;;42.67;21.48;;;6.80;99.90;;;;;;5075652;28;20044;-75
2022/06/03 03:28:23;;;;;;;42.33;20.95;;;6.70;99.90;;;;;;5075449;28;20036;-75
2022/06/03 03:30:48;;;;;;;46.03;21.35;;;6.70;99.90;;;;;;5075556;28;20538;-75
2022/06/03 03:33:32;;;;;;;42.17;21.92;;;6.70;99.90;;;;;;5083688;28;20080;-75
2022/06/03 03:36:36;;;;;;;47.33;21.65;;;6.80;99.90;;;;;;5095274;28;20048;-75
2022/06/03 03:39:13;;;;;;;44.47;21.38;;;6.90;99.90;;;;;;5081180;28;20411;-75
2022/06/03 03:41:53;;;;;;;49.28;21.40;;;7.00;99.90;;;;;;5094113;28;20044;-76
2022/06/03 03:44:21;;;;;;;47.72;22.63;;;7.00;99.90;;;;;;5076786;28;20052;-74
2022/06/03 03:47:11;;;;;;;48.67;21.30;;;7.10;99.90;;;;;;5074357;28;20134;-74
2022/06/03 03:50:03;;;;;;;41.65;20.73;;;7.20;99.90;;;;;;5074309;28;20053;-74
2022/06/03 03:52:59;;;;;;;43.55;21.45;;;7.30;99.90;;;;;;5078935;28;20052;-74
2022/06/03 03:55:30;;;;;;;45.42;22.10;;;7.50;99.90;;;;;;5094551;28;20040;-74
2022/06/03 03:58:35;;;;;;;38.40;20.38;;;7.70;99.90;;;;;;5094123;28;20051;-75
2022/06/03 04:01:10;;;;;;;44.08;20.15;;;7.80;99.90;;;;;;5094338;28;20044;-75
2022/06/03 04:04:04;;;;;;;36.92;21.05;;;8.00;99.90;;;;;;5080339;28;20083;-75
2022/06/03 04:06:50;;;;;;;43.28;20.40;;;8.10;99.90;;;;;;5073931;28;20048;-75
2022/06/03 04:09:18;;;;;;;44.17;20.27;;;8.10;99.90;;;;;;5074065;28;20049;-76
2022/06/03 04:11:55;;;;;;;31.88;18.17;;;8.20;99.90;;;;;;5074190;28;20049;-75
2022/06/03 04:14:30;;;;;;;37.00;17.73;;;8.30;99.90;;;;;;5094404;28;20055;-75
2022/06/03 04:17:33;;;;;;;38.65;18.27;;;8.30;99.90;;;;;;5094540;28;20047;-75
2022/06/03 04:20:22;;;;;;;37.97;17.50;;;8.40;99.90;;;;;;5094577;28;20051;-75
2022/06/03 04:23:06;;;;;;;40.38;18.35;;;8.40;99.90;;;;;;5054883;28;20507;-75
2022/06/03 04:25:51;;;;;;;38.75;16.83;;;8.50;99.90;;;;;;5074130;28;20111;-75
2022/06/03 04:28:42;;;;;;;24.52;15.82;;;8.60;99.90;;;;;;5074095;28;20090;-76
2022/06/03 04:31:08;;;;;;;30.40;16.15;;;8.60;99.90;;;;;;5074066;28;20040;-75
2022/06/03 04:34:02;;;;;;;30.60;15.45;;;8.80;99.90;;;;;;5074186;28;20408;-75
2022/06/03 04:36:39;;;;;;;29.27;15.20;;;8.80;99.90;;;;;;5065157;28;20115;-75
2022/06/03 04:39:39;;;;;;;26.42;14.63;;;8.80;99.90;;;;;;5073838;28;20041;-75
2022/06/03 04:42:55;;;;;;;22.10;13.23;;;9.00;99.90;;;;;;5073902;28;20051;-75
2022/06/03 04:46:03;;;;;;;17.00;12.30;;;9.30;99.90;;;;;;5011583;28;20232;-75
2022/06/03 04:49:00;;;;;;;11.75;7.80;;;10.20;99.90;;;;;;5073610;28;20127;-75
2022/06/03 04:51:54;;;;;;;11.05;6.88;;;10.90;99.90;;;;;;5073458;28;20052;-77
2022/06/03 04:55:00;;;;;;;10.48;6.35;;;11.50;99.90;;;;;;5072209;28;20127;-76
2022/06/03 04:57:44;;;;;;;9.65;5.75;;;12.10;99.90;;;;;;5073611;28;20055;-75
2022/06/03 05:00:13;;;;;;;10.77;5.43;;;12.70;99.90;;;;;;5072383;28;20066;-75
2022/06/03 05:02:48;;;;;;;13.63;5.50;;;13.10;99.90;;;;;;5079470;28;20040;-76
2022/06/03 05:05:31;;;;;;;9.38;4.57;;;13.40;99.90;;;;;;5090481;28;20051;-76
2022/06/03 05:08:35;;;;;;;7.13;3.83;;;13.90;99.90;;;;;;5090395;28;20048;-76
2022/06/03 05:11:22;;;;;;;5.38;3.55;;;14.10;99.90;;;;;;5047829;28;20060;-76
2022/06/03 05:14:32;;;;;;;8.73;4.55;;;14.50;99.90;;;;;;5070590;28;20103;-76
2022/06/03 05:17:04;;;;;;;8.07;3.83;;;14.60;99.90;;;;;;5083031;28;20071;-76
2022/06/03 05:19:35;;;;;;;8.45;3.83;;;14.70;99.90;;;;;;5090272;28;20043;-76
2022/06/03 05:22:16;;;;;;;7.95;4.00;;;14.80;99.90;;;;;;5090479;28;20070;-77
2022/06/03 05:25:01;;;;;;;5.80;3.90;;;14.70;99.90;;;;;;5079413;28;20059;-76
2022/06/03 05:27:42;;;;;;;8.27;4.20;;;14.90;99.90;;;;;;5070142;28;20105;-76
2022/06/03 05:30:41;;;;;;;9.05;3.78;;;15.40;99.90;;;;;;5070105;28;20052;-76
2022/06/03 05:33:32;;;;;;;6.03;3.45;;;15.70;99.90;;;;;;5086803;28;20090;-76
2022/06/03 05:36:11;;;;;;;9.05;3.53;;;16.00;99.90;;;;;;5072684;28;20048;-76
2022/06/03 05:39:17;;;;;;;5.65;3.47;;;16.40;99.90;;;;;;5072920;28;20381;-75
2022/06/03 05:45:10;;;;;;;10.55;3.90;;;17.30;99.90;;;;;;5072919;28;20052;-75
2022/06/03 05:47:42;;;;;;;7.05;3.85;;;17.70;83.90;;;;;;5072905;28;20047;-75
2022/06/03 05:50:22;;;;;;;5.82;3.30;;;17.50;69.90;;;;;;5072676;28;20076;-75
2022/06/03 05:53:09;;;;;;;7.97;3.42;;;17.30;74.30;;;;;;5072591;28;20404;-75
2022/06/03 05:56:23;;;;;;;5.80;3.47;;;17.70;67.60;;;;;;5072982;28;20044;-74
2022/06/03 05:59:13;;;;;;;6.20;3.17;;;17.80;60.80;;;;;;5076136;28;20076;-76
2022/06/03 06:01:59;;;;;;;8.27;2.88;;;17.40;61.20;;;;;;5077006;28;20037;-75
2022/06/03 06:04:39;;;;;;;;;;;17.50;61.00;;;;;;5077529;28;20048;-75
2022/06/03 06:07:36;;;;;;;4.32;3.00;;;17.60;57.50;;;;;;5076729;28;19942;-76
2022/06/03 06:10:09;;;;;;;;;;;18.00;56.10;;;;;;5077166;28;20052;-75
2022/06/03 06:12:55;;;;;;;5.53;2.55;;;17.80;52.20;;;;;;5076317;28;19952;-75
2022/06/03 06:16:07;;;;;;;4.93;2.15;;;18.30;37.60;;;;;;5076210;28;20068;-75
2022/06/03 06:18:54;;;;;;;7.35;2.33;;;18.60;46.30;;;;;;5076569;28;20127;-75
2022/06/03 06:21:55;;;;;;;5.45;2.30;;;18.80;29.20;;;;;;5075939;28;20151;-75
2022/06/03 06:24:57;;;;;;;5.85;2.80;;;18.80;34.30;;;;;;5056495;28;20056;-75
2022/06/03 06:27:57;;;;;;;3.83;1.88;;;19.20;42.30;;;;;;5013758;28;20129;-76
2022/06/03 06:30:58;;;;;;;5.35;1.67;;;19.10;28.70;;;;;;5075739;28;20123;-76
2022/06/03 06:33:30;;;;;;;5.55;1.90;;;19.60;17.30;;;;;;5075849;28;20059;-76
2022/06/03 06:36:08;;;;;;;4.97;2.00;;;20.20;18.70;;;;;;5075696;28;20041;-75
2022/06/03 06:38:57;;;;;;;2.95;1.52;;;20.80;19.30;;;;;;5075613;28;20055;-75
2022/06/03 06:41:46;;;;;;;4.97;2.50;;;21.10;1.10;;;;;;5078677;28;20045;-75
2022/06/03 06:44:38;;;;;;;4.25;2.05;;;20.60;1.00;;;;;;5084214;28;20037;-76
2022/06/03 06:47:28;;;;;;;5.68;2.25;;;19.10;1.00;;;;;;5077980;28;20531;-76
2022/06/03 06:50:14;;;;;;;4.25;1.85;;;18.80;1.00;;;;;;5083476;28;20491;-75
2022/06/03 06:52:40;;;;;;;3.35;1.30;;;18.50;1.00;;;;;;5085702;28;20083;-75
2022/06/03 06:55:21;;;;;;;2.88;1.13;;;19.10;1.00;;;;;;5083861;28;20037;-76
2022/06/03 06:57:50;;;;;;;4.47;1.30;;;19.10;1.00;;;;;;5083991;28;20037;-75
2022/06/03 07:00:17;;;;;;;4.07;1.17;;;19.00;1.00;;;;;;5085144;28;20064;-75
2022/06/03 07:03:21;;;;;;;5.68;1.60;;;19.20;1.00;;;;;;5085696;28;20519;-76
2022/06/03 07:05:51;;;;;;;4.05;1.40;;;19.10;1.00;;;;;;5080364;28;20504;-75
2022/06/03 07:08:26;;;;;;;5.25;1.38;;;19.10;1.00;;;;;;5079228;28;20044;-75
2022/06/03 07:10:59;;;;;;;4.03;1.77;;;19.40;1.00;;;;;;5074656;28;20143;-75
2022/06/03 07:13:47;;;;;;;4.55;1.55;;;19.80;1.00;;;;;;5075046;28;20083;-75
2022/06/03 07:19:48;;;;;;;5.38;1.83;;;21.10;1.00;;;;;;5075001;28;20048;-75
2022/06/03 07:22:35;;;;;;;4.07;1.70;;;21.40;1.00;;;;;;5071883;28;20377;-75
2022/06/03 07:25:11;;;;;;;5.20;1.80;;;21.60;1.00;;;;;;5074900;28;20059;-75
2022/06/03 07:27:42;;;;;;;6.13;1.95;;;21.50;1.00;;;;;;5074870;28;20075;-76
2022/06/03 07:30:17;;;;;;;4.03;1.58;;;22.10;1.00;;;;;;5074694;28;20124;-76
2022/06/03 07:33:22;;;;;;;2.47;1.40;;;22.10;1.00;;;;;;5074642;28;20068;-76
2022/06/03 07:36:13;;;;;;;3.22;1.40;;;22.40;1.00;;;;;;5058445;28;20572;-76
2022/06/03 07:38:54;;;;;;;2.90;1.02;;;22.70;1.00;;;;;;5074975;28;20041;-76
2022/06/03 07:41:31;;;;;;;3.25;1.60;;;22.80;1.00;;;;;;5074319;28;20036;-76
2022/06/03 07:44:21;;;;;;;4.30;1.88;;;22.60;1.00;;;;;;5072971;28;20450;-76
2022/06/03 07:47:00;;;;;;;10.00;2.33;;;22.40;1.00;;;;;;5070757;28;20152;-76
2022/06/03 07:49:29;;;;;;;6.65;1.60;;;23.00;1.00;;;;;;5071192;28;20044;-76
2022/06/03 07:52:03;;;;;;;4.32;1.63;;;23.70;1.00;;;;;;5070791;28;20147;-77
2022/06/03 07:54:34;;;;;;;4.00;1.42;;;24.20;1.00;;;;;;5071634;28;20094;-76
2022/06/03 07:57:07;;;;;;;5.32;1.77;;;24.00;1.00;;;;;;5071386;28;20047;-76
2022/06/03 07:59:35;;;;;;;5.18;1.92;;;23.40;1.00;;;;;;5071067;28;20047;-76
2022/06/03 08:02:05;;;;;;;2.97;1.40;;;23.40;1.00;;;;;;5070978;28;20044;-76
2022/06/03 08:04:36;;;;;;;3.88;1.45;;;23.80;1.00;;;;;;5071157;28;20052;-76
2022/06/03 08:12:57;;;;;;;4.47;1.77;;;23.80;1.00;;;;;;5071158;28;20060;-76
2022/06/03 08:15:28;;;;;;;4.28;1.30;;;24.40;1.00;;;;;;5071038;28;20123;-76
2022/06/03 08:17:55;;;;;;;4.63;1.35;;;24.00;1.00;;;;;;5070823;28;20122;-76
2022/06/03 08:20:23;;;;;;;5.32;1.20;;;23.40;1.00;;;;;;5070397;28;20067;-76
2022/06/03 08:22:50;;;;;;;3.17;1.20;;;23.70;1.00;;;;;;5069971;28;20045;-76
2022/06/03 08:25:27;;;;;;;3.03;1.30;;;24.10;1.00;;;;;;5070903;28;20045;-76
2022/06/03 08:27:57;;;;;;;3.40;1.58;;;24.10;1.00;;;;;;5070595;28;20083;-77
2022/06/03 08:30:28;;;;;;;4.25;1.00;;;24.40;1.00;;;;;;5070751;28;20146;-76
2022/06/03 08:33:01;;;;;;;3.45;1.40;;;24.80;1.00;;;;;;5070545;28;20044;-76
2022/06/03 08:35:31;;;;;;;3.95;1.20;;;24.40;1.00;;;;;;5070420;28;20098;-76
2022/06/03 08:38:08;;;;;;;6.63;1.27;;;24.40;1.00;;;;;;5070723;28;20048;-76
2022/06/03 08:41:07;;;;;;;2.50;1.20;;;24.60;1.00;;;;;;5070817;28;20044;-76
2022/06/03 08:43:48;;;;;;;3.53;1.38;;;25.20;1.00;;;;;;5070341;28;20040;-77
2022/06/03 08:46:21;;;;;;;5.10;1.50;;;24.90;1.00;;;;;;5071692;28;20059;-76
2022/06/03 08:48:48;;;;;;;5.70;1.40;;;24.90;1.00;;;;;;5073101;28;20457;-76
2022/06/03 08:51:32;;;;;;;7.00;1.63;;;25.20;1.00;;;;;;5072535;28;20088;-76
2022/06/03 08:54:03;;;;;;;5.28;1.45;;;24.20;1.00;;;;;;5073082;28;20118;-75
2022/06/03 08:56:40;;;;;;;5.35;1.58;;;24.00;1.00;;;;;;5072984;28;20055;-75
2022/06/03 08:59:13;;;;;;;5.65;1.95;;;23.80;1.00;;;;;;5073298;28;20041;-75
2022/06/03 09:01:47;;;;;;;4.30;1.73;;;24.10;1.00;;;;;;5072978;28;20033;-75
2022/06/03 09:04:24;;;;;;;2.90;1.10;;;24.20;1.00;;;;;;5073022;28;20044;-75
2022/06/03 09:07:23;;;;;;;4.05;1.50;;;24.80;1.00;;;;;;5072462;28;20048;-75
2022/06/03 09:09:53;;;;;;;3.13;1.30;;;25.40;1.00;;;;;;5073007;28;20072;-76
2022/06/03 09:12:30;;;;;;;3.10;1.40;;;25.20;1.00;;;;;;5072688;28;20492;-76
2022/06/03 09:15:03;;;;;;;5.22;1.55;;;25.40;1.00;;;;;;5072645;28;20048;-75
2022/06/03 09:17:42;;;;;;;4.45;2.00;;;24.30;1.00;;;;;;5072696;28;20492;-75
2022/06/03 09:20:30;;;;;;;4.35;1.50;;;24.00;1.00;;;;;;5072965;28;20476;-75
2022/06/03 09:23:11;;;;;;;3.05;1.50;;;24.10;1.00;;;;;;5072622;28;20048;-75
2022/06/03 09:25:42;;;;;;;2.80;1.42;;;24.80;1.00;;;;;;5072567;28;20044;-76
2022/06/03 09:28:14;;;;;;;4.07;1.45;;;25.30;1.00;;;;;;5072619;28;20070;-75
2022/06/03 09:30:40;;;;;;;5.85;1.58;;;24.70;1.00;;;;;;5072703;28;20044;-76
2022/06/03 09:33:10;;;;;;;2.70;1.35;;;24.60;1.00;;;;;;5072163;28;20104;-76
2022/06/03 09:35:40;;;;;;;3.80;1.40;;;24.20;1.00;;;;;;5072524;28;20105;-75
2022/06/03 09:38:07;;;;;;;4.03;2.22;;;24.90;1.00;;;;;;5072391;28;20048;-76
2022/06/03 09:40:36;;;;;;;4.93;1.58;;;24.10;1.00;;;;;;5072557;28;20048;-76
2022/06/03 09:43:23;;;;;;;4.22;1.80;;;24.40;1.00;;;;;;5072198;28;20075;-76
2022/06/03 09:45:54;;;;;;;3.55;1.58;;;24.10;1.00;;;;;;5072390;28;20076;-76
2022/06/03 09:48:25;;;;;;;3.72;1.77;;;24.00;1.00;;;;;;5072282;28;20504;-76
2022/06/03 09:50:53;;;;;;;4.03;1.60;;;24.00;1.00;;;;;;5072268;28;20460;-76
2022/06/03 09:53:25;;;;;;;5.25;2.10;;;24.40;1.00;;;;;;5072365;28;20047;-75
2022/06/03 09:55:56;;;;;;;3.63;2.13;;;24.00;1.00;;;;;;5072260;28;20048;-75
2022/06/03 09:58:27;;;;;;;2.90;1.40;;;23.60;1.00;;;;;;5072260;28;20072;-75
2022/06/03 10:00:56;;;;;;;2.67;1.33;;;23.50;1.00;;;;;;5072457;28;20381;-75
2022/06/03 10:03:22;;;;;;;2.50;1.45;;;23.50;1.00;;;;;;5072458;28;20094;-75
2022/06/03 10:05:54;;;;;;;4.53;1.60;;;22.30;1.00;;;;;;5072345;28;20450;-75
2022/06/03 10:08:23;;;;;;;3.45;1.17;;;22.60;1.00;;;;;;5072015;28;20040;-76
2022/06/03 10:13:38;;;;;;;3.92;2.35;;;22.50;1.00;;;;;;5072026;28;20466;-75
2022/06/03 10:16:07;;;;;;;4.90;1.33;;;22.70;1.00;;;;;;5072218;28;20055;-75
2022/06/03 10:18:39;;;;;;;3.08;1.20;;;23.10;1.00;;;;;;5072294;28;20048;-75
2022/06/03 10:21:05;;;;;;;3.35;1.65;;;23.50;1.00;;;;;;5072144;28;20454;-76
2022/06/03 10:23:33;;;;;;;3.67;1.80;;;23.40;1.00;;;;;;5071974;28;20044;-75
2022/06/03 10:26:01;;;;;;;4.18;1.30;;;23.20;1.00;;;;;;5072111;28;20036;-76
2022/06/03 10:28:34;;;;;;;4.28;1.85;;;23.50;1.00;;;;;;5072213;28;20083;-76
2022/06/03 10:31:07;;;;;;;2.13;1.48;;;23.20;1.00;;;;;;5072313;28;20123;-76
2022/06/03 10:33:33;;;;;;;4.10;1.42;;;22.90;1.00;;;;;;5072146;28;20178;-76
2022/06/03 10:36:01;;;;;;;3.28;1.50;;;23.00;1.00;;;;;;5071862;28;20511;-75
2022/06/03 10:38:30;;;;;;;4.30;1.50;;;23.10;1.00;;;;;;5071779;28;20037;-76
2022/06/03 10:40:56;;;;;;;4.22;1.50;;;23.40;1.00;;;;;;5071874;28;20120;-75
2022/06/03 10:43:30;;;;;;;2.72;1.42;;;23.10;1.00;;;;;;5071734;28;20040;-75
2022/06/03 10:46:15;;;;;;;3.13;1.33;;;23.10;1.00;;;;;;5075057;28;20045;-75
2022/06/03 10:48:42;;;;;;;5.60;2.38;;;23.00;1.00;;;;;;5075709;28;20036;-75
2022/06/03 11:02:29;;;;;;;;;;;23.70;1.00;;;;;;5075661;28;20048;-75
2022/06/03 11:05:09;;;;;;;3.67;1.55;;;23.60;1.00;;;;;;5075140;28;20368;-75
2022/06/03 11:07:36;;;;;;;2.90;1.55;;;24.00;1.00;;;;;;5075185;28;20448;-75
2022/06/03 11:10:09;;;;;;;3.58;1.38;;;23.70;1.00;;;;;;5075005;28;20056;-75
2022/06/03 11:12:35;;;;;;;3.83;1.38;;;24.00;1.00;;;;;;5075219;28;20041;-75
2022/06/03 11:15:01;;;;;;;3.03;1.10;;;24.60;1.00;;;;;;5073626;28;20052;-75
2022/06/03 11:17:40;;;;;;;3.33;1.42;;;25.70;1.00;;;;;;5073531;28;20048;-76
2022/06/03 11:20:29;;;;;;;4.15;1.48;;;26.20;1.00;;;;;;5072071;28;20040;-75
2022/06/03 11:22:55;;;;;;;3.38;1.38;;;26.00;1.00;;;;;;5071891;28;20040;-76
2022/06/03 11:25:25;;;;;;;5.95;1.35;;;26.40;1.00;;;;;;5070434;28;20052;-76
2022/06/03 11:27:58;;;;;;;2.92;1.25;;;26.50;1.00;;;;;;5071740;28;20049;-77
2022/06/03 11:30:46;;;;;;;3.22;1.10;;;26.80;1.00;;;;;;5071853;28;20049;-76
2022/06/03 11:33:21;;;;;;;3.83;1.02;;;26.50;1.00;;;;;;5072432;28;20115;-76
2022/06/03 11:36:10;;;;;;;3.03;1.10;;;26.70;1.00;;;;;;5072163;28;20051;-75
2022/06/03 11:38:39;;;;;;;2.58;1.20;;;27.10;1.00;;;;;;5072004;28;20064;-75
2022/06/03 11:41:16;;;;;;;1.88;1.00;;;27.30;1.00;;;;;;5071544;28;21165;-75
2022/06/03 11:44:01;;;;;;;4.25;1.30;;;27.40;1.00;;;;;;5071410;28;20504;-75
2022/06/03 11:47:06;;;;;;;2.63;1.27;;;27.40;1.00;;;;;;5071529;28;20491;-75
2022/06/03 11:49:33;;;;;;;4.60;1.40;;;28.10;1.00;;;;;;5072734;28;20053;-75
2022/06/03 11:52:00;;;;;;;6.20;1.05;;;28.30;1.00;;;;;;5073995;28;20049;-76
2022/06/03 11:54:27;;;;;;;2.20;1.08;;;27.70;1.00;;;;;;5073832;28;20115;-76
2022/06/03 11:56:54;;;;;;;2.85;1.20;;;26.70;1.00;;;;;;5073802;28;20048;-75
2022/06/03 11:59:50;;;;;;;4.55;1.20;;;26.80;1.00;;;;;;5074200;28;20036;-75
2022/06/03 12:02:38;;;;;;;2.90;1.48;;;26.90;1.00;;;;;;5074003;28;20445;-75
2022/06/03 12:05:18;;;;;;;3.35;1.20;;;26.30;1.00;;;;;;5074172;28;20055;-75
2022/06/03 12:08:02;;;;;;;2.78;1.10;;;27.00;1.00;;;;;;5073834;28;20040;-76
2022/06/03 12:10:42;;;;;;;3.58;1.33;;;27.70;1.00;;;;;;5074300;28;20040;-75
2022/06/03 12:13:26;;;;;;;3.25;1.25;;;27.40;1.00;;;;;;5073547;28;20472;-76
2022/06/03 12:15:55;;;;;;;3.33;1.23;;;27.60;1.00;;;;;;5073897;28;20439;-75
2022/06/03 12:18:37;;;;;;;3.95;1.55;;;27.50;1.00;;;;;;5073692;28;20124;-76
2022/06/03 12:21:34;;;;;;;6.95;1.70;;;27.70;1.00;;;;;;5073784;28;20106;-77
2022/06/03 12:24:38;;;;;;;2.80;1.15;;;27.90;1.00;;;;;;5074013;28;20048;-77
2022/06/03 12:27:14;;;;;;;6.07;1.65;;;28.10;1.00;;;;;;5073904;28;20041;-76
2022/06/03 12:29:55;;;;;;;2.70;1.40;;;27.20;1.00;;;;;;5074406;28;20046;-76
2022/06/03 12:32:28;;;;;;;3.70;1.20;;;26.50;1.00;;;;;;5074202;28;20107;-77
2022/06/03 12:35:32;;;;;;;4.57;1.30;;;26.70;1.00;;;;;;5074077;28;20072;-77
2022/06/03 12:38:19;;;;;;;3.60;1.48;;;27.30;1.00;;;;;;5073377;28;20119;-76
2022/06/03 12:40:46;;;;;;;5.75;1.55;;;26.90;1.00;;;;;;5079920;28;20537;-77
2022/06/03 12:43:28;;;;;;;4.60;1.50;;;28.00;1.00;;;;;;5083426;28;20044;-77
2022/06/03 12:46:37;;;;;;;4.13;1.48;;;27.60;1.00;;;;;;5089819;28;20040;-74
2022/06/03 12:49:14;;;;;;;5.53;1.45;;;28.60;1.00;;;;;;5079513;28;20043;-76
2022/06/03 12:52:01;;;;;;;3.10;1.10;;;27.90;1.00;;;;;;5087477;28;20101;-75
2022/06/03 12:54:27;;;;;;;2.33;1.25;;;28.10;1.00;;;;;;5093715;28;20115;-75
2022/06/03 12:57:30;;;;;;;4.85;1.52;;;28.10;1.00;;;;;;5091587;28;20051;-75
2022/06/03 13:00:04;;;;;;;4.28;1.42;;;28.60;1.00;;;;;;5082486;28;20434;-77
2022/06/03 13:02:34;;;;;;;3.13;1.58;;;28.60;1.00;;;;;;5095688;28;20070;-77
2022/06/03 13:05:10;;;;;;;4.15;1.52;;;28.10;1.00;;;;;;5095809;28;20119;-78
2022/06/03 13:07:56;;;;;;;2.85;1.77;;;28.00;1.00;;;;;;5094921;28;20476;-77
2022/06/03 13:10:26;;;;;;;2.50;1.70;;;26.30;1.00;;;;;;5086866;28;20411;-77
2022/06/03 13:12:54;;;;;;;2.55;1.10;;;25.90;1.00;;;;;;5084499;28;20433;-74
2022/06/03 13:15:20;;;;;;;2.50;1.50;;;26.50;1.00;;;;;;5079487;28;20047;-74
2022/06/03 13:18:18;;;;;;;3.10;1.30;;;26.70;1.00;;;;;;5074237;28;20123;-74
2022/06/03 13:20:46;;;;;;;3.88;1.17;;;27.20;1.00;;;;;;5071920;28;20052;-75
2022/06/03 13:23:38;;;;;;;2.97;1.33;;;27.40;1.00;;;;;;5072315;28;20041;-74
2022/06/03 13:26:22;;;;;;;4.20;1.10;;;26.80;1.00;;;;;;5066764;28;20535;-74
2022/06/03 13:28:53;;;;;;;1.88;1.10;;;27.20;1.00;;;;;;5071921;28;20048;-75
2022/06/03 13:31:37;;;;;;;2.05;0.90;;;27.60;1.00;;;;;;5072361;28;20496;-74
2022/06/03 13:34:09;;;;;;;2.92;0.95;;;27.50;1.00;;;;;;5072622;28;20476;-75
2022/06/03 13:36:41;;;;;;;2.70;1.20;;;27.80;1.00;;;;;;5072429;28;20048;-75
2022/06/03 13:39:15;;;;;;;2.17;1.00;;;27.70;1.00;;;;;;5072513;28;20040;-74
2022/06/03 13:44:50;;;;;;;2.08;0.60;;;27.60;1.00;;;;;;5072157;28;20507;-74
2022/06/03 13:47:18;;;;;;;2.88;0.90;;;28.40;1.00;;;;;;5072422;28;20063;-75
2022/06/03 13:49:53;;;;;;;3.83;1.17;;;28.80;1.00;;;;;;5072630;28;20545;-75
2022/06/03 13:52:30;;;;;;;2.45;1.08;;;28.90;1.00;;;;;;5071878;28;20048;-75
2022/06/03 13:55:21;;;;;;;2.75;0.80;;;28.60;1.00;;;;;;5072239;28;20044;-75
2022/06/03 13:57:59;;;;;;;2.13;1.20;;;29.00;1.00;;;;;;5071101;28;20084;-75
2022/06/03 14:00:40;;;;;;;3.72;1.10;;;28.70;1.00;;;;;;5072201;28;20502;-75
2022/06/03 14:03:11;;;;;;;1.85;0.90;;;28.60;1.00;;;;;;5072013;28;20204;-75
2022/06/03 14:06:02;;;;;;;2.72;1.30;;;28.70;1.00;;;;;;5072414;28;20036;-75
2022/06/03 14:08:31;;;;;;;2.40;0.88;;;29.00;1.00;;;;;;5072089;28;20415;-75
2022/06/03 14:11:05;;;;;;;2.72;1.10;;;28.40;1.00;;;;;;5071913;28;20102;-76
2022/06/03 14:13:43;;;;;;;2.03;1.00;;;28.80;1.00;;;;;;5072236;28;20036;-76
2022/06/03 14:16:36;;;;;;;4.07;1.30;;;28.50;1.00;;;;;;5072256;28;20044;-77
2022/06/03 14:19:07;;;;;;;2.47;0.85;;;28.90;1.00;;;;;;5074538;28;20041;-76
2022/06/03 14:21:46;;;;;;;4.75;1.00;;;28.70;1.00;;;;;;5076565;28;20040;-76
2022/06/03 14:24:37;;;;;;;2.53;0.90;;;28.70;1.00;;;;;;5076586;28;20407;-76
2022/06/03 14:27:53;;;;;;;4.03;1.15;;;29.10;1.00;;;;;;5076539;28;20075;-77
2022/06/03 14:30:56;;;;;;;5.70;1.00;;;28.10;1.00;;;;;;5060335;28;20536;-76
2022/06/03 14:33:27;;;;;;;3.58;0.90;;;27.80;1.00;;;;;;5075801;28;20282;-77
2022/06/03 14:35:58;;;;;;;1.98;0.65;;;26.40;1.00;;;;;;5074533;28;20056;-76
2022/06/03 14:38:48;;;;;;;1.98;0.98;;;26.00;1.00;;;;;;5075788;28;20045;-76